sensor_id;sensor_type;location;lat;lon;timestamp;P1;durP1;ratioP1;P2;durP2;ratioP2
11827;SDS011;5971;49.646;8.568;2023-03-01T00:00:12;3.88;;;3.53;;
11827;SDS011;5971;49.646;8.568;2023-03-01T00:03:13;5.25;;;3.75;;
11827;SDS011;5971;49.646;8.568;2023-03-01T00:06:14;4.22;;;3.05;;
11827;SDS011;5971;49.646;8.568;2023-03-01T00:09:16;5.68;;;3.97;;
11827;SDS011;5971;49.646;8.568;2023-03-01T00:12:17;4.88;;;3.75;;
11827;SDS011;5971;49.646;8.568;2023-03-01T00:15:19;5.20;;;4.38;;
11827;SDS011;5971;49.646;8.568;2023-03-01T00:18:20;5.57;;;3.35;;
11827;SDS011;5971;49.646;8.568;2023-03-01T00:21:22;7.10;;;4.88;;
11827;SDS011;5971;49.646;8.568;2023-03-01T00:24:23;4.72;;;3.65;;
11827;SDS011;5971;49.646;8.568;2023-03-01T00:27:24;5.75;;;4.05;;
11827;SDS011;5971;49.646;8.568;2023-03-01T00:30:26;4.40;;;3.53;;
11827;SDS011;5971;49.646;8.568;2023-03-01T00:33:27;7.32;;;5.28;;
11827;SDS011;5971;49.646;8.568;2023-03-01T00:36:29;6.82;;;3.80;;
11827;SDS011;5971;49.646;8.568;2023-03-01T00:39:31;8.63;;;5.05;;
11827;SDS011;5971;49.646;8.568;2023-03-01T00:42:34;6.85;;;3.35;;
11827;SDS011;5971;49.646;8.568;2023-03-01T00:45:35;5.90;;;3.78;;
11827;SDS011;5971;49.646;8.568;2023-03-01T00:48:36;6.45;;;3.85;;
11827;SDS011;5971;49.646;8.568;2023-03-01T00:51:38;6.88;;;4.20;;
11827;SDS011;5971;49.646;8.568;2023-03-01T00:54:42;5.28;;;4.03;;
11827;SDS011;5971;49.646;8.568;2023-03-01T00:57:43;6.07;;;4.03;;
11827;SDS011;5971;49.646;8.568;2023-03-01T01:00:44;3.42;;;3.13;;
11827;SDS011;5971;49.646;8.568;2023-03-01T01:03:47;4.03;;;3.00;;
11827;SDS011;5971;49.646;8.568;2023-03-01T01:06:49;3.25;;;2.28;;
11827;SDS011;5971;49.646;8.568;2023-03-01T01:09:50;3.92;;;3.20;;
11827;SDS011;5971;49.646;8.568;2023-03-01T01:12:52;9.50;;;5.10;;
11827;SDS011;5971;49.646;8.568;2023-03-01T01:15:53;3.30;;;2.63;;
11827;SDS011;5971;49.646;8.568;2023-03-01T01:18:55;6.07;;;3.92;;
11827;SDS011;5971;49.646;8.568;2023-03-01T01:21:56;5.90;;;3.90;;
11827;SDS011;5971;49.646;8.568;2023-03-01T01:24:58;7.53;;;4.05;;
11827;SDS011;5971;49.646;8.568;2023-03-01T01:27:59;9.73;;;4.40;;
11827;SDS011;5971;49.646;8.568;2023-03-01T01:31:00;6.13;;;4.57;;
11827;SDS011;5971;49.646;8.568;2023-03-01T01:34:03;5.13;;;3.63;;
11827;SDS011;5971;49.646;8.568;2023-03-01T01:37:04;6.35;;;3.80;;
11827;SDS011;5971;49.646;8.568;2023-03-01T01:40:09;7.53;;;4.15;;
11827;SDS011;5971;49.646;8.568;2023-03-01T01:43:45;5.75;;;3.88;;
11827;SDS011;5971;49.646;8.568;2023-03-01T01:46:42;4.82;;;4.38;;
11827;SDS011;5971;49.646;8.568;2023-03-01T01:49:45;4.35;;;3.72;;
11827;SDS011;5971;49.646;8.568;2023-03-01T01:52:47;5.47;;;3.00;;
11827;SDS011;5971;49.646;8.568;2023-03-01T01:55:51;4.85;;;3.55;;
11827;SDS011;5971;49.646;8.568;2023-03-01T01:58:53;4.93;;;3.05;;
11827;SDS011;5971;49.646;8.568;2023-03-01T02:01:55;6.72;;;3.72;;
11827;SDS011;5971;49.646;8.568;2023-03-01T02:05:03;5.00;;;4.15;;
11827;SDS011;5971;49.646;8.568;2023-03-01T02:08:06;2.80;;;2.55;;
11827;SDS011;5971;49.646;8.568;2023-03-01T02:11:09;4.22;;;3.70;;
11827;SDS011;5971;49.646;8.568;2023-03-01T02:14:11;6.45;;;4.25;;
11827;SDS011;5971;49.646;8.568;2023-03-01T02:17:12;3.97;;;3.13;;
11827;SDS011;5971;49.646;8.568;2023-03-01T02:23:23;6.15;;;4.45;;
11827;SDS011;5971;49.646;8.568;2023-03-01T02:26:27;5.53;;;4.07;;
11827;SDS011;5971;49.646;8.568;2023-03-01T02:29:30;3.90;;;3.30;;
11827;SDS011;5971;49.646;8.568;2023-03-01T02:32:32;6.68;;;4.05;;
11827;SDS011;5971;49.646;8.568;2023-03-01T02:35:34;5.25;;;3.63;;
11827;SDS011;5971;49.646;8.568;2023-03-01T02:38:36;7.63;;;4.28;;
11827;SDS011;5971;49.646;8.568;2023-03-01T02:41:38;5.82;;;4.15;;
11827;SDS011;5971;49.646;8.568;2023-03-01T02:44:40;5.07;;;3.03;;
11827;SDS011;5971;49.646;8.568;2023-03-01T02:47:41;3.70;;;3.15;;
11827;SDS011;5971;49.646;8.568;2023-03-01T02:57:09;4.53;;;4.00;;
11827;SDS011;5971;49.646;8.568;2023-03-01T03:00:11;4.60;;;3.28;;
11827;SDS011;5971;49.646;8.568;2023-03-01T03:03:20;5.28;;;2.97;;
11827;SDS011;5971;49.646;8.568;2023-03-01T03:06:22;5.32;;;4.28;;
11827;SDS011;5971;49.646;8.568;2023-03-01T03:09:23;4.43;;;3.20;;
11827;SDS011;5971;49.646;8.568;2023-03-01T03:12:25;6.55;;;3.25;;
11827;SDS011;5971;49.646;8.568;2023-03-01T03:15:26;4.15;;;3.70;;
11827;SDS011;5971;49.646;8.568;2023-03-01T03:18:28;5.22;;;3.53;;
11827;SDS011;5971;49.646;8.568;2023-03-01T03:21:29;2.78;;;2.05;;
11827;SDS011;5971;49.646;8.568;2023-03-01T03:24:31;5.70;;;3.30;;
11827;SDS011;5971;49.646;8.568;2023-03-01T03:27:42;7.78;;;4.18;;
11827;SDS011;5971;49.646;8.568;2023-03-01T03:30:45;5.32;;;4.18;;
11827;SDS011;5971;49.646;8.568;2023-03-01T03:33:47;4.13;;;3.33;;
11827;SDS011;5971;49.646;8.568;2023-03-01T03:36:55;4.88;;;3.58;;
11827;SDS011;5971;49.646;8.568;2023-03-01T03:39:58;6.28;;;5.75;;
11827;SDS011;5971;49.646;8.568;2023-03-01T03:42:59;8.45;;;3.90;;
11827;SDS011;5971;49.646;8.568;2023-03-01T03:46:01;5.05;;;3.58;;
11827;SDS011;5971;49.646;8.568;2023-03-01T03:49:06;4.07;;;3.67;;
11827;SDS011;5971;49.646;8.568;2023-03-01T03:52:08;5.45;;;4.72;;
11827;SDS011;5971;49.646;8.568;2023-03-01T03:55:14;5.68;;;4.30;;
11827;SDS011;5971;49.646;8.568;2023-03-01T03:58:21;5.80;;;3.88;;
11827;SDS011;5971;49.646;8.568;2023-03-01T04:01:22;7.72;;;5.13;;
11827;SDS011;5971;49.646;8.568;2023-03-01T04:04:24;7.57;;;3.80;;
11827;SDS011;5971;49.646;8.568;2023-03-01T04:07:25;4.78;;;3.35;;
11827;SDS011;5971;49.646;8.568;2023-03-01T04:10:30;4.88;;;4.00;;
11827;SDS011;5971;49.646;8.568;2023-03-01T04:13:31;8.05;;;5.00;;
11827;SDS011;5971;49.646;8.568;2023-03-01T04:16:33;7.68;;;4.43;;
11827;SDS011;5971;49.646;8.568;2023-03-01T04:19:34;3.92;;;3.55;;
11827;SDS011;5971;49.646;8.568;2023-03-01T04:22:37;6.50;;;4.82;;
11827;SDS011;5971;49.646;8.568;2023-03-01T04:25:39;15.45;;;4.60;;
11827;SDS011;5971;49.646;8.568;2023-03-01T04:28:41;9.55;;;5.32;;
11827;SDS011;5971;49.646;8.568;2023-03-01T04:31:47;5.75;;;3.95;;
11827;SDS011;5971;49.646;8.568;2023-03-01T04:34:48;6.25;;;4.38;;
11827;SDS011;5971;49.646;8.568;2023-03-01T04:37:50;4.05;;;3.22;;
11827;SDS011;5971;49.646;8.568;2023-03-01T04:40:51;6.50;;;4.50;;
11827;SDS011;5971;49.646;8.568;2023-03-01T04:43:53;9.00;;;4.82;;
11827;SDS011;5971;49.646;8.568;2023-03-01T04:46:54;5.80;;;4.90;;
11827;SDS011;5971;49.646;8.568;2023-03-01T04:49:55;6.80;;;4.70;;
11827;SDS011;5971;49.646;8.568;2023-03-01T04:52:56;7.25;;;4.15;;
11827;SDS011;5971;49.646;8.568;2023-03-01T04:56:01;7.38;;;4.20;;
11827;SDS011;5971;49.646;8.568;2023-03-01T04:59:02;9.68;;;4.38;;
11827;SDS011;5971;49.646;8.568;2023-03-01T05:02:06;6.65;;;4.13;;
11827;SDS011;5971;49.646;8.568;2023-03-01T05:05:08;3.70;;;2.20;;
11827;SDS011;5971;49.646;8.568;2023-03-01T05:08:09;7.40;;;4.40;;
11827;SDS011;5971;49.646;8.568;2023-03-01T05:11:18;6.65;;;4.35;;
11827;SDS011;5971;49.646;8.568;2023-03-01T05:14:19;11.50;;;5.05;;
11827;SDS011;5971;49.646;8.568;2023-03-01T05:17:20;5.63;;;4.50;;
11827;SDS011;5971;49.646;8.568;2023-03-01T05:20:22;6.13;;;4.07;;
11827;SDS011;5971;49.646;8.568;2023-03-01T05:23:26;5.30;;;4.20;;
11827;SDS011;5971;49.646;8.568;2023-03-01T05:26:27;5.20;;;4.05;;
11827;SDS011;5971;49.646;8.568;2023-03-01T05:29:30;7.93;;;3.97;;
11827;SDS011;5971;49.646;8.568;2023-03-01T05:32:32;6.72;;;3.45;;
11827;SDS011;5971;49.646;8.568;2023-03-01T05:35:33;8.00;;;5.32;;
11827;SDS011;5971;49.646;8.568;2023-03-01T05:38:35;6.03;;;4.55;;
11827;SDS011;5971;49.646;8.568;2023-03-01T05:41:36;6.18;;;4.50;;
11827;SDS011;5971;49.646;8.568;2023-03-01T05:44:38;5.38;;;4.03;;
11827;SDS011;5971;49.646;8.568;2023-03-01T05:47:40;7.05;;;6.35;;
11827;SDS011;5971;49.646;8.568;2023-03-01T05:50:44;7.75;;;4.25;;
11827;SDS011;5971;49.646;8.568;2023-03-01T05:53:46;14.73;;;5.32;;
11827;SDS011;5971;49.646;8.568;2023-03-01T05:56:47;6.78;;;4.68;;
11827;SDS011;5971;49.646;8.568;2023-03-01T05:59:49;5.38;;;4.68;;
11827;SDS011;5971;49.646;8.568;2023-03-01T06:02:50;4.15;;;3.63;;
11827;SDS011;5971;49.646;8.568;2023-03-01T06:05:56;6.05;;;4.65;;
11827;SDS011;5971;49.646;8.568;2023-03-01T06:08:57;12.18;;;3.92;;
11827;SDS011;5971;49.646;8.568;2023-03-01T06:11:59;4.57;;;4.07;;
11827;SDS011;5971;49.646;8.568;2023-03-01T06:15:01;4.78;;;4.15;;
11827;SDS011;5971;49.646;8.568;2023-03-01T06:18:02;9.13;;;4.45;;
11827;SDS011;5971;49.646;8.568;2023-03-01T06:21:04;7.68;;;3.65;;
11827;SDS011;5971;49.646;8.568;2023-03-01T06:24:05;7.07;;;4.07;;
11827;SDS011;5971;49.646;8.568;2023-03-01T06:27:08;6.43;;;4.00;;
11827;SDS011;5971;49.646;8.568;2023-03-01T06:30:10;7.25;;;3.95;;
11827;SDS011;5971;49.646;8.568;2023-03-01T06:33:12;6.22;;;3.63;;
11827;SDS011;5971;49.646;8.568;2023-03-01T06:36:14;6.53;;;4.22;;
11827;SDS011;5971;49.646;8.568;2023-03-01T06:39:15;5.35;;;4.00;;
11827;SDS011;5971;49.646;8.568;2023-03-01T06:42:18;8.65;;;5.18;;
11827;SDS011;5971;49.646;8.568;2023-03-01T06:45:20;7.68;;;5.15;;
11827;SDS011;5971;49.646;8.568;2023-03-01T06:48:21;8.32;;;4.00;;
11827;SDS011;5971;49.646;8.568;2023-03-01T06:51:23;9.02;;;5.05;;
11827;SDS011;5971;49.646;8.568;2023-03-01T06:54:24;10.60;;;5.22;;
11827;SDS011;5971;49.646;8.568;2023-03-01T06:57:25;9.40;;;4.63;;
11827;SDS011;5971;49.646;8.568;2023-03-01T07:00:27;6.97;;;5.05;;
11827;SDS011;5971;49.646;8.568;2023-03-01T07:03:28;7.38;;;3.25;;
11827;SDS011;5971;49.646;8.568;2023-03-01T07:06:30;6.55;;;4.68;;
11827;SDS011;5971;49.646;8.568;2023-03-01T07:09:32;8.50;;;4.63;;
11827;SDS011;5971;49.646;8.568;2023-03-01T07:12:33;7.97;;;4.57;;
11827;SDS011;5971;49.646;8.568;2023-03-01T07:15:35;5.50;;;4.07;;
11827;SDS011;5971;49.646;8.568;2023-03-01T07:18:36;7.15;;;3.75;;
11827;SDS011;5971;49.646;8.568;2023-03-01T07:21:37;9.95;;;6.43;;
11827;SDS011;5971;49.646;8.568;2023-03-01T07:24:40;8.48;;;5.03;;
11827;SDS011;5971;49.646;8.568;2023-03-01T07:27:41;6.80;;;5.25;;
11827;SDS011;5971;49.646;8.568;2023-03-01T07:30:43;11.63;;;5.35;;
11827;SDS011;5971;49.646;8.568;2023-03-01T07:33:44;7.85;;;4.95;;
11827;SDS011;5971;49.646;8.568;2023-03-01T07:36:47;6.82;;;4.95;;
11827;SDS011;5971;49.646;8.568;2023-03-01T07:39:48;10.07;;;5.20;;
11827;SDS011;5971;49.646;8.568;2023-03-01T07:42:54;8.48;;;4.13;;
11827;SDS011;5971;49.646;8.568;2023-03-01T07:45:59;10.13;;;4.60;;
11827;SDS011;5971;49.646;8.568;2023-03-01T07:49:01;8.63;;;4.65;;
11827;SDS011;5971;49.646;8.568;2023-03-01T07:52:03;10.65;;;5.60;;
11827;SDS011;5971;49.646;8.568;2023-03-01T07:55:04;5.60;;;4.60;;
11827;SDS011;5971;49.646;8.568;2023-03-01T07:58:06;8.98;;;5.30;;
11827;SDS011;5971;49.646;8.568;2023-03-01T08:01:12;11.15;;;4.93;;
11827;SDS011;5971;49.646;8.568;2023-03-01T08:04:13;6.68;;;4.90;;
11827;SDS011;5971;49.646;8.568;2023-03-01T08:07:18;5.22;;;3.85;;
11827;SDS011;5971;49.646;8.568;2023-03-01T08:10:19;12.57;;;5.47;;
11827;SDS011;5971;49.646;8.568;2023-03-01T08:13:21;7.78;;;4.25;;
11827;SDS011;5971;49.646;8.568;2023-03-01T08:16:23;7.63;;;5.20;;
11827;SDS011;5971;49.646;8.568;2023-03-01T08:19:24;5.75;;;3.90;;
11827;SDS011;5971;49.646;8.568;2023-03-01T08:22:26;7.07;;;5.05;;
11827;SDS011;5971;49.646;8.568;2023-03-01T08:25:27;10.13;;;5.47;;
11827;SDS011;5971;49.646;8.568;2023-03-01T08:28:28;8.15;;;5.13;;
11827;SDS011;5971;49.646;8.568;2023-03-01T08:34:31;13.77;;;5.68;;
11827;SDS011;5971;49.646;8.568;2023-03-01T08:37:32;5.88;;;3.63;;
11827;SDS011;5971;49.646;8.568;2023-03-01T08:40:34;9.52;;;6.20;;
11827;SDS011;5971;49.646;8.568;2023-03-01T08:43:35;9.23;;;4.30;;
11827;SDS011;5971;49.646;8.568;2023-03-01T08:46:39;11.02;;;5.22;;
11827;SDS011;5971;49.646;8.568;2023-03-01T08:49:41;5.03;;;3.42;;
11827;SDS011;5971;49.646;8.568;2023-03-01T08:52:42;10.40;;;6.07;;
11827;SDS011;5971;49.646;8.568;2023-03-01T08:55:44;5.03;;;2.63;;
11827;SDS011;5971;49.646;8.568;2023-03-01T08:58:45;10.90;;;5.30;;
11827;SDS011;5971;49.646;8.568;2023-03-01T09:01:47;9.20;;;4.15;;
11827;SDS011;5971;49.646;8.568;2023-03-01T09:04:48;11.27;;;5.22;;
11827;SDS011;5971;49.646;8.568;2023-03-01T09:07:50;9.68;;;7.20;;
11827;SDS011;5971;49.646;8.568;2023-03-01T09:10:51;10.38;;;5.75;;
11827;SDS011;5971;49.646;8.568;2023-03-01T09:13:53;9.48;;;6.22;;
11827;SDS011;5971;49.646;8.568;2023-03-01T09:16:54;10.68;;;5.25;;
11827;SDS011;5971;49.646;8.568;2023-03-01T09:19:55;11.73;;;5.10;;
11827;SDS011;5971;49.646;8.568;2023-03-01T09:22:57;11.90;;;5.10;;
11827;SDS011;5971;49.646;8.568;2023-03-01T09:25:58;11.55;;;5.50;;
11827;SDS011;5971;49.646;8.568;2023-03-01T09:28:59;8.43;;;4.93;;
11827;SDS011;5971;49.646;8.568;2023-03-01T09:32:01;11.45;;;5.43;;
11827;SDS011;5971;49.646;8.568;2023-03-01T09:35:02;10.75;;;4.82;;
11827;SDS011;5971;49.646;8.568;2023-03-01T09:38:06;12.38;;;6.35;;
11827;SDS011;5971;49.646;8.568;2023-03-01T09:41:17;13.15;;;5.13;;
11827;SDS011;5971;49.646;8.568;2023-03-01T09:47:43;10.18;;;4.55;;
11827;SDS011;5971;49.646;8.568;2023-03-01T09:50:44;11.38;;;5.60;;
11827;SDS011;5971;49.646;8.568;2023-03-01T09:53:47;10.27;;;4.95;;
11827;SDS011;5971;49.646;8.568;2023-03-01T10:02:57;9.70;;;5.18;;
11827;SDS011;5971;49.646;8.568;2023-03-01T10:09:16;11.77;;;6.50;;
11827;SDS011;5971;49.646;8.568;2023-03-01T10:12:26;11.38;;;6.45;;
11827;SDS011;5971;49.646;8.568;2023-03-01T10:15:32;11.02;;;6.30;;
11827;SDS011;5971;49.646;8.568;2023-03-01T10:18:35;11.70;;;6.18;;
11827;SDS011;5971;49.646;8.568;2023-03-01T10:21:41;11.90;;;6.13;;
11827;SDS011;5971;49.646;8.568;2023-03-01T10:27:55;14.07;;;6.22;;
11827;SDS011;5971;49.646;8.568;2023-03-01T10:31:01;11.95;;;5.88;;
11827;SDS011;5971;49.646;8.568;2023-03-01T10:34:04;11.35;;;5.15;;
11827;SDS011;5971;49.646;8.568;2023-03-01T10:37:10;9.25;;;5.88;;
11827;SDS011;5971;49.646;8.568;2023-03-01T10:40:11;13.98;;;6.13;;
11827;SDS011;5971;49.646;8.568;2023-03-01T10:43:13;11.77;;;6.40;;
11827;SDS011;5971;49.646;8.568;2023-03-01T10:46:28;14.02;;;5.55;;
11827;SDS011;5971;49.646;8.568;2023-03-01T10:49:30;13.38;;;5.53;;
11827;SDS011;5971;49.646;8.568;2023-03-01T10:52:35;11.07;;;5.60;;
11827;SDS011;5971;49.646;8.568;2023-03-01T10:55:37;10.02;;;5.20;;
11827;SDS011;5971;49.646;8.568;2023-03-01T10:59:01;15.50;;;6.10;;
11827;SDS011;5971;49.646;8.568;2023-03-01T11:02:23;15.63;;;6.68;;
11827;SDS011;5971;49.646;8.568;2023-03-01T11:05:26;14.40;;;5.88;;
11827;SDS011;5971;49.646;8.568;2023-03-01T11:08:33;14.90;;;6.53;;
11827;SDS011;5971;49.646;8.568;2023-03-01T11:11:35;12.73;;;6.45;;
11827;SDS011;5971;49.646;8.568;2023-03-01T11:14:36;14.60;;;6.50;;
11827;SDS011;5971;49.646;8.568;2023-03-01T11:17:39;11.10;;;6.35;;
11827;SDS011;5971;49.646;8.568;2023-03-01T11:20:58;13.52;;;6.43;;
11827;SDS011;5971;49.646;8.568;2023-03-01T11:24:01;14.70;;;7.15;;
11827;SDS011;5971;49.646;8.568;2023-03-01T11:27:03;13.57;;;6.78;;
11827;SDS011;5971;49.646;8.568;2023-03-01T11:30:53;13.10;;;6.90;;
11827;SDS011;5971;49.646;8.568;2023-03-01T11:33:34;12.73;;;6.55;;
11827;SDS011;5971;49.646;8.568;2023-03-01T11:36:42;13.40;;;7.65;;
11827;SDS011;5971;49.646;8.568;2023-03-01T11:39:53;11.35;;;6.72;;
11827;SDS011;5971;49.646;8.568;2023-03-01T11:43:09;11.68;;;7.18;;
11827;SDS011;5971;49.646;8.568;2023-03-01T11:46:23;12.18;;;6.35;;
11827;SDS011;5971;49.646;8.568;2023-03-01T11:52:35;12.65;;;7.30;;
11827;SDS011;5971;49.646;8.568;2023-03-01T12:08:52;12.13;;;7.22;;
11827;SDS011;5971;49.646;8.568;2023-03-01T12:18:30;10.93;;;6.57;;
11827;SDS011;5971;49.646;8.568;2023-03-01T12:21:39;10.15;;;6.43;;
11827;SDS011;5971;49.646;8.568;2023-03-01T12:24:46;13.80;;;7.40;;
11827;SDS011;5971;49.646;8.568;2023-03-01T12:37:21;11.40;;;6.75;;
11827;SDS011;5971;49.646;8.568;2023-03-01T12:43:35;10.07;;;5.75;;
11827;SDS011;5971;49.646;8.568;2023-03-01T12:49:51;9.93;;;6.28;;
11827;SDS011;5971;49.646;8.568;2023-03-01T12:52:55;11.45;;;6.80;;
11827;SDS011;5971;49.646;8.568;2023-03-01T12:56:07;11.13;;;5.75;;
11827;SDS011;5971;49.646;8.568;2023-03-01T12:59:21;9.02;;;5.80;;
11827;SDS011;5971;49.646;8.568;2023-03-01T13:02:35;9.80;;;6.10;;
11827;SDS011;5971;49.646;8.568;2023-03-01T13:08:49;11.68;;;7.43;;
11827;SDS011;5971;49.646;8.568;2023-03-01T13:11:52;10.60;;;7.40;;
11827;SDS011;5971;49.646;8.568;2023-03-01T13:14:53;12.27;;;7.00;;
11827;SDS011;5971;49.646;8.568;2023-03-01T13:17:56;10.45;;;6.60;;
11827;SDS011;5971;49.646;8.568;2023-03-01T13:20:59;11.10;;;6.50;;
11827;SDS011;5971;49.646;8.568;2023-03-01T13:24:00;11.45;;;6.70;;
11827;SDS011;5971;49.646;8.568;2023-03-01T13:30:37;10.05;;;6.18;;
11827;SDS011;5971;49.646;8.568;2023-03-01T13:39:38;10.77;;;6.22;;
11827;SDS011;5971;49.646;8.568;2023-03-01T13:42:41;9.00;;;5.75;;
11827;SDS011;5971;49.646;8.568;2023-03-01T13:48:52;11.02;;;6.03;;
11827;SDS011;5971;49.646;8.568;2023-03-01T13:51:54;10.02;;;5.90;;
11827;SDS011;5971;49.646;8.568;2023-03-01T13:54:56;9.68;;;5.45;;
11827;SDS011;5971;49.646;8.568;2023-03-01T13:57:58;8.48;;;5.53;;
11827;SDS011;5971;49.646;8.568;2023-03-01T14:01:04;8.85;;;5.63;;
11827;SDS011;5971;49.646;8.568;2023-03-01T14:04:22;9.02;;;5.40;;
11827;SDS011;5971;49.646;8.568;2023-03-01T14:07:24;14.48;;;5.45;;
11827;SDS011;5971;49.646;8.568;2023-03-01T14:10:28;7.80;;;4.68;;
11827;SDS011;5971;49.646;8.568;2023-03-01T14:13:39;7.03;;;4.57;;
11827;SDS011;5971;49.646;8.568;2023-03-01T14:19:57;8.63;;;5.03;;
11827;SDS011;5971;49.646;8.568;2023-03-01T14:23:00;9.52;;;4.97;;
11827;SDS011;5971;49.646;8.568;2023-03-01T14:26:02;7.85;;;4.10;;
11827;SDS011;5971;49.646;8.568;2023-03-01T14:29:04;9.68;;;4.70;;
11827;SDS011;5971;49.646;8.568;2023-03-01T14:32:16;8.48;;;4.82;;
11827;SDS011;5971;49.646;8.568;2023-03-01T14:35:20;7.57;;;4.32;;
11827;SDS011;5971;49.646;8.568;2023-03-01T14:38:23;8.25;;;4.78;;
11827;SDS011;5971;49.646;8.568;2023-03-01T14:41:25;8.70;;;4.53;;
11827;SDS011;5971;49.646;8.568;2023-03-01T14:44:28;7.32;;;4.45;;
11827;SDS011;5971;49.646;8.568;2023-03-01T14:47:32;7.60;;;4.55;;
11827;SDS011;5971;49.646;8.568;2023-03-01T14:50:34;7.32;;;4.15;;
11827;SDS011;5971;49.646;8.568;2023-03-01T14:53:36;8.18;;;5.07;;
11827;SDS011;5971;49.646;8.568;2023-03-01T14:56:51;9.23;;;5.15;;
11827;SDS011;5971;49.646;8.568;2023-03-01T14:59:53;7.55;;;4.18;;
11827;SDS011;5971;49.646;8.568;2023-03-01T15:02:56;7.13;;;4.10;;
11827;SDS011;5971;49.646;8.568;2023-03-01T15:05:58;9.23;;;4.38;;
11827;SDS011;5971;49.646;8.568;2023-03-01T15:09:01;7.07;;;3.97;;
11827;SDS011;5971;49.646;8.568;2023-03-01T15:12:23;7.95;;;4.03;;
11827;SDS011;5971;49.646;8.568;2023-03-01T15:15:34;9.45;;;4.10;;
11827;SDS011;5971;49.646;8.568;2023-03-01T15:18:35;9.68;;;4.70;;
11827;SDS011;5971;49.646;8.568;2023-03-01T15:21:38;8.70;;;4.35;;
11827;SDS011;5971;49.646;8.568;2023-03-01T15:24:39;6.72;;;3.88;;
11827;SDS011;5971;49.646;8.568;2023-03-01T15:27:44;8.38;;;4.40;;
11827;SDS011;5971;49.646;8.568;2023-03-01T15:30:46;8.13;;;4.32;;
11827;SDS011;5971;49.646;8.568;2023-03-01T15:34:07;7.75;;;4.32;;
11827;SDS011;5971;49.646;8.568;2023-03-01T15:40:29;8.45;;;5.40;;
11827;SDS011;5971;49.646;8.568;2023-03-01T15:43:44;7.85;;;4.13;;
11827;SDS011;5971;49.646;8.568;2023-03-01T15:46:46;8.45;;;4.63;;
11827;SDS011;5971;49.646;8.568;2023-03-01T15:49:47;8.82;;;4.38;;
11827;SDS011;5971;49.646;8.568;2023-03-01T15:52:56;8.18;;;4.18;;
11827;SDS011;5971;49.646;8.568;2023-03-01T15:55:58;7.25;;;4.20;;
11827;SDS011;5971;49.646;8.568;2023-03-01T15:59:00;8.38;;;5.25;;
11827;SDS011;5971;49.646;8.568;2023-03-01T16:02:02;8.52;;;4.40;;
11827;SDS011;5971;49.646;8.568;2023-03-01T16:05:03;9.77;;;6.03;;
11827;SDS011;5971;49.646;8.568;2023-03-01T16:08:05;9.90;;;4.80;;
11827;SDS011;5971;49.646;8.568;2023-03-01T16:11:14;10.38;;;5.13;;
11827;SDS011;5971;49.646;8.568;2023-03-01T16:14:15;9.10;;;4.75;;
11827;SDS011;5971;49.646;8.568;2023-03-01T16:17:17;8.27;;;4.63;;
11827;SDS011;5971;49.646;8.568;2023-03-01T16:20:18;9.40;;;4.70;;
11827;SDS011;5971;49.646;8.568;2023-03-01T16:23:28;10.60;;;4.97;;
11827;SDS011;5971;49.646;8.568;2023-03-01T16:26:30;11.00;;;4.95;;
11827;SDS011;5971;49.646;8.568;2023-03-01T16:29:31;11.25;;;5.18;;
11827;SDS011;5971;49.646;8.568;2023-03-01T16:32:37;10.02;;;4.93;;
11827;SDS011;5971;49.646;8.568;2023-03-01T16:35:41;11.10;;;4.50;;
11827;SDS011;5971;49.646;8.568;2023-03-01T16:38:42;11.18;;;4.75;;
11827;SDS011;5971;49.646;8.568;2023-03-01T16:41:44;7.68;;;3.97;;
11827;SDS011;5971;49.646;8.568;2023-03-01T16:44:45;10.27;;;4.18;;
11827;SDS011;5971;49.646;8.568;2023-03-01T16:47:47;7.85;;;4.53;;
11827;SDS011;5971;49.646;8.568;2023-03-01T16:50:55;8.07;;;4.88;;
11827;SDS011;5971;49.646;8.568;2023-03-01T16:53:56;9.90;;;4.05;;
11827;SDS011;5971;49.646;8.568;2023-03-01T16:56:58;9.63;;;5.28;;
11827;SDS011;5971;49.646;8.568;2023-03-01T16:59:59;8.95;;;3.95;;
11827;SDS011;5971;49.646;8.568;2023-03-01T17:03:01;7.47;;;4.75;;
11827;SDS011;5971;49.646;8.568;2023-03-01T17:06:06;9.82;;;5.75;;
11827;SDS011;5971;49.646;8.568;2023-03-01T17:09:08;8.35;;;4.20;;
11827;SDS011;5971;49.646;8.568;2023-03-01T17:12:13;10.38;;;4.63;;
11827;SDS011;5971;49.646;8.568;2023-03-01T17:15:15;11.15;;;6.05;;
11827;SDS011;5971;49.646;8.568;2023-03-01T17:18:17;9.50;;;4.70;;
11827;SDS011;5971;49.646;8.568;2023-03-01T17:21:18;10.43;;;5.43;;
11827;SDS011;5971;49.646;8.568;2023-03-01T17:24:19;9.77;;;3.97;;
11827;SDS011;5971;49.646;8.568;2023-03-01T17:27:21;12.35;;;6.20;;
11827;SDS011;5971;49.646;8.568;2023-03-01T17:30:25;12.73;;;6.10;;
11827;SDS011;5971;49.646;8.568;2023-03-01T17:33:27;9.85;;;5.22;;
11827;SDS011;5971;49.646;8.568;2023-03-01T17:36:31;10.75;;;6.18;;
11827;SDS011;5971;49.646;8.568;2023-03-01T17:39:34;7.57;;;4.03;;
11827;SDS011;5971;49.646;8.568;2023-03-01T17:42:36;9.85;;;5.28;;
11827;SDS011;5971;49.646;8.568;2023-03-01T17:45:38;6.68;;;4.18;;
11827;SDS011;5971;49.646;8.568;2023-03-01T17:48:39;10.65;;;6.13;;
11827;SDS011;5971;49.646;8.568;2023-03-01T17:51:41;9.27;;;4.75;;
11827;SDS011;5971;49.646;8.568;2023-03-01T17:54:42;12.85;;;6.35;;
11827;SDS011;5971;49.646;8.568;2023-03-01T17:57:44;14.10;;;4.78;;
11827;SDS011;5971;49.646;8.568;2023-03-01T18:00:45;8.93;;;4.47;;
11827;SDS011;5971;49.646;8.568;2023-03-01T18:03:49;9.75;;;4.63;;
11827;SDS011;5971;49.646;8.568;2023-03-01T18:06:50;10.25;;;4.75;;
11827;SDS011;5971;49.646;8.568;2023-03-01T18:09:51;8.50;;;4.13;;
11827;SDS011;5971;49.646;8.568;2023-03-01T18:12:53;9.35;;;4.95;;
11827;SDS011;5971;49.646;8.568;2023-03-01T18:15:54;11.18;;;5.05;;
11827;SDS011;5971;49.646;8.568;2023-03-01T18:19:00;12.07;;;6.25;;
11827;SDS011;5971;49.646;8.568;2023-03-01T18:22:02;12.05;;;6.10;;
11827;SDS011;5971;49.646;8.568;2023-03-01T18:25:04;9.60;;;4.75;;
11827;SDS011;5971;49.646;8.568;2023-03-01T18:28:06;8.98;;;5.28;;
11827;SDS011;5971;49.646;8.568;2023-03-01T18:31:08;8.80;;;5.95;;
11827;SDS011;5971;49.646;8.568;2023-03-01T18:34:11;9.98;;;5.60;;
11827;SDS011;5971;49.646;8.568;2023-03-01T18:37:12;12.05;;;4.97;;
11827;SDS011;5971;49.646;8.568;2023-03-01T18:40:14;9.55;;;5.57;;
11827;SDS011;5971;49.646;8.568;2023-03-01T18:43:16;9.23;;;5.18;;
11827;SDS011;5971;49.646;8.568;2023-03-01T18:46:17;8.60;;;4.93;;
11827;SDS011;5971;49.646;8.568;2023-03-01T18:49:20;10.90;;;5.93;;
11827;SDS011;5971;49.646;8.568;2023-03-01T18:52:21;14.40;;;5.03;;
11827;SDS011;5971;49.646;8.568;2023-03-01T18:55:22;10.80;;;4.65;;
11827;SDS011;5971;49.646;8.568;2023-03-01T18:58:24;8.07;;;5.13;;
11827;SDS011;5971;49.646;8.568;2023-03-01T19:01:26;9.10;;;5.00;;
11827;SDS011;5971;49.646;8.568;2023-03-01T19:04:28;10.50;;;5.55;;
11827;SDS011;5971;49.646;8.568;2023-03-01T19:07:29;10.82;;;4.90;;
11827;SDS011;5971;49.646;8.568;2023-03-01T19:10:32;11.55;;;6.10;;
11827;SDS011;5971;49.646;8.568;2023-03-01T19:13:33;8.95;;;4.97;;
11827;SDS011;5971;49.646;8.568;2023-03-01T19:16:35;11.57;;;5.57;;
11827;SDS011;5971;49.646;8.568;2023-03-01T19:19:37;10.93;;;4.32;;
11827;SDS011;5971;49.646;8.568;2023-03-01T19:22:39;8.80;;;5.68;;
11827;SDS011;5971;49.646;8.568;2023-03-01T19:25:40;10.60;;;6.20;;
11827;SDS011;5971;49.646;8.568;2023-03-01T19:28:41;6.22;;;4.32;;
11827;SDS011;5971;49.646;8.568;2023-03-01T19:31:44;8.63;;;5.22;;
11827;SDS011;5971;49.646;8.568;2023-03-01T19:34:45;11.73;;;5.95;;
11827;SDS011;5971;49.646;8.568;2023-03-01T19:37:47;11.90;;;5.43;;
11827;SDS011;5971;49.646;8.568;2023-03-01T19:40:48;16.08;;;5.65;;
11827;SDS011;5971;49.646;8.568;2023-03-01T19:43:50;11.90;;;5.38;;
11827;SDS011;5971;49.646;8.568;2023-03-01T19:46:51;7.32;;;5.10;;
11827;SDS011;5971;49.646;8.568;2023-03-01T19:49:54;8.60;;;5.20;;
11827;SDS011;5971;49.646;8.568;2023-03-01T19:52:55;10.63;;;5.47;;
11827;SDS011;5971;49.646;8.568;2023-03-01T19:55:59;7.80;;;4.75;;
11827;SDS011;5971;49.646;8.568;2023-03-01T19:59:01;7.70;;;4.65;;
11827;SDS011;5971;49.646;8.568;2023-03-01T20:02:04;8.95;;;5.40;;
11827;SDS011;5971;49.646;8.568;2023-03-01T20:05:06;8.95;;;5.13;;